sensor_id;sensor_type;location;lat;lon;timestamp;temperature;humidity
67942;SHT31;54731;42.600;23.476;2024-03-25T00:00:14;3.55;83.64
67942;SHT31;54731;42.600;23.476;2024-03-25T00:02:41;3.69;83.58
67942;SHT31;54731;42.600;23.476;2024-03-25T00:05:07;3.74;83.71
67942;SHT31;54731;42.600;23.476;2024-03-25T00:07:32;3.69;83.47
67942;SHT31;54731;42.600;23.476;2024-03-25T00:09:57;3.62;83.29
67942;SHT31;54731;42.600;23.476;2024-03-25T00:12:23;3.62;83.45
67942;SHT31;54731;42.600;23.476;2024-03-25T00:14:48;3.52;83.56
67942;SHT31;54731;42.600;23.476;2024-03-25T00:17:13;3.39;84.05
67942;SHT31;54731;42.600;23.476;2024-03-25T00:19:39;3.25;84.12
67942;SHT31;54731;42.600;23.476;2024-03-25T00:22:04;3.13;84.15
67942;SHT31;54731;42.600;23.476;2024-03-25T00:24:29;3.17;84.73
67942;SHT31;54731;42.600;23.476;2024-03-25T00:26:54;3.17;84.66
67942;SHT31;54731;42.600;23.476;2024-03-25T00:29:20;3.15;84.10
67942;SHT31;54731;42.600;23.476;2024-03-25T00:31:45;3.08;84.09
67942;SHT31;54731;42.600;23.476;2024-03-25T00:34:10;2.97;83.68
67942;SHT31;54731;42.600;23.476;2024-03-25T00:36:36;2.96;83.67
67942;SHT31;54731;42.600;23.476;2024-03-25T00:39:01;2.94;84.00
67942;SHT31;54731;42.600;23.476;2024-03-25T00:41:26;2.94;83.95
67942;SHT31;54731;42.600;23.476;2024-03-25T00:43:51;2.99;83.87
67942;SHT31;54731;42.600;23.476;2024-03-25T00:46:17;2.99;83.64
67942;SHT31;54731;42.600;23.476;2024-03-25T00:48:42;2.93;83.86
67942;SHT31;54731;42.600;23.476;2024-03-25T00:51:07;2.99;83.99
67942;SHT31;54731;42.600;23.476;2024-03-25T00:53:33;2.90;84.01
67942;SHT31;54731;42.600;23.476;2024-03-25T00:55:58;2.97;84.22
67942;SHT31;54731;42.600;23.476;2024-03-25T00:58:23;3.03;83.96
67942;SHT31;54731;42.600;23.476;2024-03-25T01:00:48;3.11;83.86
67942;SHT31;54731;42.600;23.476;2024-03-25T01:03:14;3.07;83.73
67942;SHT31;54731;42.600;23.476;2024-03-25T01:05:39;3.08;83.97
67942;SHT31;54731;42.600;23.476;2024-03-25T01:08:05;3.08;84.05
67942;SHT31;54731;42.600;23.476;2024-03-25T01:10:30;3.07;83.86
67942;SHT31;54731;42.600;23.476;2024-03-25T01:12:55;3.03;83.66
67942;SHT31;54731;42.600;23.476;2024-03-25T01:15:20;2.93;83.97
67942;SHT31;54731;42.600;23.476;2024-03-25T01:17:46;2.91;83.78
67942;SHT31;54731;42.600;23.476;2024-03-25T01:20:11;2.91;83.88
67942;SHT31;54731;42.600;23.476;2024-03-25T01:22:36;2.89;84.23
67942;SHT31;54731;42.600;23.476;2024-03-25T01:25:02;2.90;83.97
67942;SHT31;54731;42.600;23.476;2024-03-25T01:27:27;2.93;84.12
67942;SHT31;54731;42.600;23.476;2024-03-25T01:29:52;3.01;84.22
67942;SHT31;54731;42.600;23.476;2024-03-25T01:32:17;3.03;84.37
67942;SHT31;54731;42.600;23.476;2024-03-25T01:34:43;3.04;84.24
67942;SHT31;54731;42.600;23.476;2024-03-25T01:37:08;3.11;84.10
67942;SHT31;54731;42.600;23.476;2024-03-25T01:39:33;3.08;84.26
67942;SHT31;54731;42.600;23.476;2024-03-25T01:41:59;3.11;84.23
67942;SHT31;54731;42.600;23.476;2024-03-25T01:44:24;3.15;84.16
67942;SHT31;54731;42.600;23.476;2024-03-25T01:46:49;3.08;84.06
67942;SHT31;54731;42.600;23.476;2024-03-25T01:49:15;3.05;84.63
67942;SHT31;54731;42.600;23.476;2024-03-25T01:51:41;3.10;84.64
67942;SHT31;54731;42.600;23.476;2024-03-25T01:54:07;3.13;84.48
67942;SHT31;54731;42.600;23.476;2024-03-25T01:56:33;3.20;84.47
67942;SHT31;54731;42.600;23.476;2024-03-25T01:59:00;3.27;83.92
67942;SHT31;54731;42.600;23.476;2024-03-25T02:01:26;3.18;84.23
67942;SHT31;54731;42.600;23.476;2024-03-25T02:03:52;3.23;84.15
67942;SHT31;54731;42.600;23.476;2024-03-25T02:06:18;3.27;84.21
67942;SHT31;54731;42.600;23.476;2024-03-25T02:08:45;3.20;84.68
67942;SHT31;54731;42.600;23.476;2024-03-25T02:11:10;3.23;84.72
67942;SHT31;54731;42.600;23.476;2024-03-25T02:13:36;3.14;85.29
67942;SHT31;54731;42.600;23.476;2024-03-25T02:16:03;3.11;85.79
67942;SHT31;54731;42.600;23.476;2024-03-25T02:18:29;3.08;86.04
67942;SHT31;54731;42.600;23.476;2024-03-25T02:20:55;2.93;86.23
67942;SHT31;54731;42.600;23.476;2024-03-25T02:23:20;2.89;86.35
67942;SHT31;54731;42.600;23.476;2024-03-25T02:25:52;2.97;86.40
67942;SHT31;54731;42.600;23.476;2024-03-25T02:28:18;3.00;86.46
67942;SHT31;54731;42.600;23.476;2024-03-25T02:30:44;3.07;86.19
67942;SHT31;54731;42.600;23.476;2024-03-25T02:33:09;3.05;86.16
67942;SHT31;54731;42.600;23.476;2024-03-25T02:35:35;2.97;86.25
67942;SHT31;54731;42.600;23.476;2024-03-25T02:38:01;2.99;86.47
67942;SHT31;54731;42.600;23.476;2024-03-25T02:40:26;2.99;86.50
67942;SHT31;54731;42.600;23.476;2024-03-25T02:42:52;3.03;86.44
67942;SHT31;54731;42.600;23.476;2024-03-25T02:45:18;3.04;85.90
67942;SHT31;54731;42.600;23.476;2024-03-25T02:47:43;3.05;85.81
67942;SHT31;54731;42.600;23.476;2024-03-25T02:50:09;3.01;85.58
67942;SHT31;54731;42.600;23.476;2024-03-25T02:52:34;3.00;85.65
67942;SHT31;54731;42.600;23.476;2024-03-25T02:54:59;2.91;85.66
67942;SHT31;54731;42.600;23.476;2024-03-25T02:57:25;2.86;85.94
67942;SHT31;54731;42.600;23.476;2024-03-25T02:59:50;2.87;85.89
67942;SHT31;54731;42.600;23.476;2024-03-25T03:02:15;2.90;85.80
67942;SHT31;54731;42.600;23.476;2024-03-25T03:04:40;2.96;85.40
67942;SHT31;54731;42.600;23.476;2024-03-25T03:07:06;2.93;85.63
67942;SHT31;54731;42.600;23.476;2024-03-25T03:09:31;3.01;85.50
67942;SHT31;54731;42.600;23.476;2024-03-25T03:11:56;2.89;85.64
67942;SHT31;54731;42.600;23.476;2024-03-25T03:14:22;2.96;85.74
67942;SHT31;54731;42.600;23.476;2024-03-25T03:16:47;3.00;85.45
67942;SHT31;54731;42.600;23.476;2024-03-25T03:19:13;2.84;85.52
67942;SHT31;54731;42.600;23.476;2024-03-25T03:21:38;2.87;85.67
67942;SHT31;54731;42.600;23.476;2024-03-25T03:24:04;2.83;85.40
67942;SHT31;54731;42.600;23.476;2024-03-25T03:26:29;2.83;85.21
67942;SHT31;54731;42.600;23.476;2024-03-25T03:28:58;2.80;84.75
67942;SHT31;54731;42.600;23.476;2024-03-25T03:31:25;2.84;84.36
67942;SHT31;54731;42.600;23.476;2024-03-25T03:33:50;2.90;83.89
67942;SHT31;54731;42.600;23.476;2024-03-25T03:36:20;2.87;83.38
67942;SHT31;54731;42.600;23.476;2024-03-25T03:38:46;2.87;82.84
67942;SHT31;54731;42.600;23.476;2024-03-25T03:41:11;2.84;82.00
67942;SHT31;54731;42.600;23.476;2024-03-25T03:43:37;2.91;82.36
67942;SHT31;54731;42.600;23.476;2024-03-25T03:46:02;2.93;82.06
67942;SHT31;54731;42.600;23.476;2024-03-25T03:48:28;2.93;82.13
67942;SHT31;54731;42.600;23.476;2024-03-25T03:50:54;3.00;82.26
67942;SHT31;54731;42.600;23.476;2024-03-25T03:53:19;3.03;82.26
67942;SHT31;54731;42.600;23.476;2024-03-25T03:58:20;3.13;81.99
67942;SHT31;54731;42.600;23.476;2024-03-25T04:00:45;3.17;81.69
67942;SHT31;54731;42.600;23.476;2024-03-25T04:03:11;3.11;81.68
67942;SHT31;54731;42.600;23.476;2024-03-25T04:05:36;3.15;81.32
67942;SHT31;54731;42.600;23.476;2024-03-25T04:08:01;3.17;81.28
67942;SHT31;54731;42.600;23.476;2024-03-25T04:10:26;3.20;81.72
67942;SHT31;54731;42.600;23.476;2024-03-25T04:12:52;3.14;81.96
67942;SHT31;54731;42.600;23.476;2024-03-25T04:15:17;3.07;82.58
67942;SHT31;54731;42.600;23.476;2024-03-25T04:17:43;3.17;82.29
67942;SHT31;54731;42.600;23.476;2024-03-25T04:20:09;3.14;82.36
67942;SHT31;54731;42.600;23.476;2024-03-25T04:22:34;3.18;82.35
67942;SHT31;54731;42.600;23.476;2024-03-25T04:24:59;3.10;81.89
67942;SHT31;54731;42.600;23.476;2024-03-25T04:27:25;3.07;82.14
67942;SHT31;54731;42.600;23.476;2024-03-25T04:29:50;3.08;81.81
67942;SHT31;54731;42.600;23.476;2024-03-25T04:32:15;3.14;81.89
67942;SHT31;54731;42.600;23.476;2024-03-25T04:34:41;3.14;81.78
67942;SHT31;54731;42.600;23.476;2024-03-25T04:37:06;3.04;81.58
67942;SHT31;54731;42.600;23.476;2024-03-25T04:39:31;3.08;81.44
67942;SHT31;54731;42.600;23.476;2024-03-25T04:41:56;3.05;81.14
67942;SHT31;54731;42.600;23.476;2024-03-25T04:44:22;3.07;80.69
67942;SHT31;54731;42.600;23.476;2024-03-25T04:46:47;3.03;80.83
67942;SHT31;54731;42.600;23.476;2024-03-25T04:49:13;3.04;80.94
67942;SHT31;54731;42.600;23.476;2024-03-25T04:51:38;3.01;79.91
67942;SHT31;54731;42.600;23.476;2024-03-25T04:54:03;3.08;80.03
67942;SHT31;54731;42.600;23.476;2024-03-25T04:56:29;3.00;79.98
67942;SHT31;54731;42.600;23.476;2024-03-25T04:58:54;2.90;80.08
67942;SHT31;54731;42.600;23.476;2024-03-25T05:01:20;2.89;80.23
67942;SHT31;54731;42.600;23.476;2024-03-25T05:03:46;2.86;80.39
67942;SHT31;54731;42.600;23.476;2024-03-25T05:06:11;2.87;80.44
67942;SHT31;54731;42.600;23.476;2024-03-25T05:08:36;2.90;80.71
67942;SHT31;54731;42.600;23.476;2024-03-25T05:11:02;2.94;80.49
67942;SHT31;54731;42.600;23.476;2024-03-25T05:13:27;2.97;80.37
67942;SHT31;54731;42.600;23.476;2024-03-25T05:15:52;2.93;79.81
67942;SHT31;54731;42.600;23.476;2024-03-25T05:18:18;2.99;79.77
67942;SHT31;54731;42.600;23.476;2024-03-25T05:20:44;2.97;79.14
67942;SHT31;54731;42.600;23.476;2024-03-25T05:23:09;2.89;79.49
67942;SHT31;54731;42.600;23.476;2024-03-25T05:25:35;2.94;79.86
67942;SHT31;54731;42.600;23.476;2024-03-25T05:28:00;2.96;80.36
67942;SHT31;54731;42.600;23.476;2024-03-25T05:30:26;3.01;80.05
67942;SHT31;54731;42.600;23.476;2024-03-25T05:32:51;3.01;80.87
67942;SHT31;54731;42.600;23.476;2024-03-25T05:35:16;3.03;80.85
67942;SHT31;54731;42.600;23.476;2024-03-25T05:37:42;3.05;80.47
67942;SHT31;54731;42.600;23.476;2024-03-25T05:40:07;3.01;79.49
67942;SHT31;54731;42.600;23.476;2024-03-25T05:42:33;3.08;79.31
67942;SHT31;54731;42.600;23.476;2024-03-25T05:44:58;3.11;78.94
67942;SHT31;54731;42.600;23.476;2024-03-25T05:47:24;3.04;79.11
67942;SHT31;54731;42.600;23.476;2024-03-25T05:49:49;3.11;79.45
67942;SHT31;54731;42.600;23.476;2024-03-25T05:52:14;3.20;79.59
67942;SHT31;54731;42.600;23.476;2024-03-25T05:54:39;3.17;78.81
67942;SHT31;54731;42.600;23.476;2024-03-25T05:57:05;3.17;78.83
67942;SHT31;54731;42.600;23.476;2024-03-25T05:59:30;3.23;78.93
67942;SHT31;54731;42.600;23.476;2024-03-25T06:01:55;3.30;78.49
67942;SHT31;54731;42.600;23.476;2024-03-25T06:04:21;3.27;78.30
67942;SHT31;54731;42.600;23.476;2024-03-25T06:06:46;3.34;77.95
67942;SHT31;54731;42.600;23.476;2024-03-25T06:09:11;3.34;77.55
67942;SHT31;54731;42.600;23.476;2024-03-25T06:11:36;3.36;77.90
67942;SHT31;54731;42.600;23.476;2024-03-25T06:14:02;3.38;77.43
67942;SHT31;54731;42.600;23.476;2024-03-25T06:16:27;3.35;77.60
67942;SHT31;54731;42.600;23.476;2024-03-25T06:18:52;3.48;76.95
67942;SHT31;54731;42.600;23.476;2024-03-25T06:21:18;3.55;76.32
67942;SHT31;54731;42.600;23.476;2024-03-25T06:23:43;3.56;76.09
67942;SHT31;54731;42.600;23.476;2024-03-25T06:26:08;3.48;76.20
67942;SHT31;54731;42.600;23.476;2024-03-25T06:28:34;3.42;77.07
67942;SHT31;54731;42.600;23.476;2024-03-25T06:30:59;3.36;76.45
67942;SHT31;54731;42.600;23.476;2024-03-25T06:33:24;3.27;76.99
67942;SHT31;54731;42.600;23.476;2024-03-25T06:35:49;3.34;76.77
67942;SHT31;54731;42.600;23.476;2024-03-25T06:38:15;3.31;76.94
67942;SHT31;54731;42.600;23.476;2024-03-25T06:40:40;3.30;76.25
67942;SHT31;54731;42.600;23.476;2024-03-25T06:43:05;3.28;76.48
67942;SHT31;54731;42.600;23.476;2024-03-25T06:45:31;3.32;76.17
67942;SHT31;54731;42.600;23.476;2024-03-25T06:47:56;3.42;76.06
67942;SHT31;54731;42.600;23.476;2024-03-25T06:50:22;3.55;75.28
67942;SHT31;54731;42.600;23.476;2024-03-25T06:52:47;3.62;75.39
67942;SHT31;54731;42.600;23.476;2024-03-25T06:55:12;3.74;75.26
67942;SHT31;54731;42.600;23.476;2024-03-25T06:57:38;3.81;75.19
67942;SHT31;54731;42.600;23.476;2024-03-25T07:00:03;3.83;74.63
67942;SHT31;54731;42.600;23.476;2024-03-25T07:02:29;4.06;75.36
67942;SHT31;54731;42.600;23.476;2024-03-25T07:04:54;4.07;74.09
67942;SHT31;54731;42.600;23.476;2024-03-25T07:07:19;4.05;73.40
67942;SHT31;54731;42.600;23.476;2024-03-25T07:09:45;4.11;74.31
67942;SHT31;54731;42.600;23.476;2024-03-25T07:12:10;4.19;74.41
67942;SHT31;54731;42.600;23.476;2024-03-25T07:14:35;4.17;73.51
67942;SHT31;54731;42.600;23.476;2024-03-25T07:17:01;4.32;74.56
67942;SHT31;54731;42.600;23.476;2024-03-25T07:19:26;4.43;73.94
67942;SHT31;54731;42.600;23.476;2024-03-25T07:21:51;4.49;73.01
67942;SHT31;54731;42.600;23.476;2024-03-25T07:24:17;4.44;72.65
67942;SHT31;54731;42.600;23.476;2024-03-25T07:26:42;4.54;71.82
67942;SHT31;54731;42.600;23.476;2024-03-25T07:29:07;4.61;72.05
67942;SHT31;54731;42.600;23.476;2024-03-25T07:31:33;4.65;72.31
67942;SHT31;54731;42.600;23.476;2024-03-25T07:33:58;4.70;71.82
67942;SHT31;54731;42.600;23.476;2024-03-25T07:36:23;4.72;70.85
67942;SHT31;54731;42.600;23.476;2024-03-25T07:38:48;4.75;71.89
67942;SHT31;54731;42.600;23.476;2024-03-25T07:41:14;4.81;71.41
67942;SHT31;54731;42.600;23.476;2024-03-25T07:43:39;4.88;70.72
67942;SHT31;54731;42.600;23.476;2024-03-25T07:46:04;4.92;70.30
67942;SHT31;54731;42.600;23.476;2024-03-25T07:48:30;4.91;70.63
67942;SHT31;54731;42.600;23.476;2024-03-25T07:50:55;4.91;69.18
67942;SHT31;54731;42.600;23.476;2024-03-25T07:53:20;4.98;70.38
67942;SHT31;54731;42.600;23.476;2024-03-25T07:55:46;4.96;70.11
67942;SHT31;54731;42.600;23.476;2024-03-25T07:58:11;5.04;70.11
67942;SHT31;54731;42.600;23.476;2024-03-25T08:00:36;5.07;69.70
67942;SHT31;54731;42.600;23.476;2024-03-25T08:03:02;5.15;69.27
67942;SHT31;54731;42.600;23.476;2024-03-25T08:05:29;5.15;68.79
67942;SHT31;54731;42.600;23.476;2024-03-25T08:07:55;5.28;69.89
67942;SHT31;54731;42.600;23.476;2024-03-25T08:10:20;5.38;69.78
67942;SHT31;54731;42.600;23.476;2024-03-25T08:12:45;5.45;68.24
67942;SHT31;54731;42.600;23.476;2024-03-25T08:15:11;5.47;68.77
67942;SHT31;54731;42.600;23.476;2024-03-25T08:17:36;5.62;68.12
67942;SHT31;54731;42.600;23.476;2024-03-25T08:20:01;5.55;68.01
67942;SHT31;54731;42.600;23.476;2024-03-25T08:22:26;5.59;66.99
67942;SHT31;54731;42.600;23.476;2024-03-25T08:24:52;5.66;67.27
67942;SHT31;54731;42.600;23.476;2024-03-25T08:27:17;5.81;66.04
67942;SHT31;54731;42.600;23.476;2024-03-25T08:29:42;5.76;65.46
67942;SHT31;54731;42.600;23.476;2024-03-25T08:32:08;5.85;66.83
67942;SHT31;54731;42.600;23.476;2024-03-25T08:34:33;6.00;66.43
67942;SHT31;54731;42.600;23.476;2024-03-25T08:36:58;6.16;65.19
67942;SHT31;54731;42.600;23.476;2024-03-25T08:39:24;6.21;65.60
67942;SHT31;54731;42.600;23.476;2024-03-25T08:41:49;6.14;65.73
67942;SHT31;54731;42.600;23.476;2024-03-25T08:44:14;6.16;64.61
67942;SHT31;54731;42.600;23.476;2024-03-25T08:46:39;6.17;65.29
67942;SHT31;54731;42.600;23.476;2024-03-25T08:49:05;5.98;65.52
67942;SHT31;54731;42.600;23.476;2024-03-25T08:51:30;6.04;66.32
67942;SHT31;54731;42.600;23.476;2024-03-25T08:53:55;6.08;66.94
67942;SHT31;54731;42.600;23.476;2024-03-25T08:56:21;6.17;65.97
67942;SHT31;54731;42.600;23.476;2024-03-25T08:58:46;6.10;64.82
67942;SHT31;54731;42.600;23.476;2024-03-25T09:01:11;6.01;64.78
67942;SHT31;54731;42.600;23.476;2024-03-25T09:03:36;6.20;65.01
67942;SHT31;54731;42.600;23.476;2024-03-25T09:06:02;6.24;64.75
67942;SHT31;54731;42.600;23.476;2024-03-25T09:08:27;6.31;62.40
67942;SHT31;54731;42.600;23.476;2024-03-25T09:10:53;6.42;63.90
67942;SHT31;54731;42.600;23.476;2024-03-25T09:13:18;6.40;64.50
67942;SHT31;54731;42.600;23.476;2024-03-25T09:15:43;6.35;64.28
67942;SHT31;54731;42.600;23.476;2024-03-25T09:18:08;6.37;64.14
67942;SHT31;54731;42.600;23.476;2024-03-25T09:20:34;6.42;62.77
67942;SHT31;54731;42.600;23.476;2024-03-25T09:22:59;6.62;63.52
67942;SHT31;54731;42.600;23.476;2024-03-25T09:25:24;6.76;62.72
67942;SHT31;54731;42.600;23.476;2024-03-25T09:27:50;6.91;64.27
67942;SHT31;54731;42.600;23.476;2024-03-25T09:30:16;6.92;62.53
67942;SHT31;54731;42.600;23.476;2024-03-25T09:32:42;6.82;62.65
67942;SHT31;54731;42.600;23.476;2024-03-25T09:35:08;6.96;62.24
67942;SHT31;54731;42.600;23.476;2024-03-25T09:37:33;6.89;62.05
67942;SHT31;54731;42.600;23.476;2024-03-25T09:39:59;7.10;61.37
67942;SHT31;54731;42.600;23.476;2024-03-25T09:42:33;7.20;62.41
67942;SHT31;54731;42.600;23.476;2024-03-25T09:44:59;7.31;61.25
67942;SHT31;54731;42.600;23.476;2024-03-25T09:47:25;7.38;59.83
67942;SHT31;54731;42.600;23.476;2024-03-25T09:49:51;7.40;60.08
67942;SHT31;54731;42.600;23.476;2024-03-25T09:52:19;7.51;60.42
67942;SHT31;54731;42.600;23.476;2024-03-25T09:54:44;7.74;60.67
67942;SHT31;54731;42.600;23.476;2024-03-25T09:57:10;7.68;59.60
67942;SHT31;54731;42.600;23.476;2024-03-25T09:59:36;7.81;59.13
67942;SHT31;54731;42.600;23.476;2024-03-25T10:02:02;7.75;59.32
67942;SHT31;54731;42.600;23.476;2024-03-25T10:04:27;7.67;60.20
67942;SHT31;54731;42.600;23.476;2024-03-25T10:06:53;7.31;59.71
67942;SHT31;54731;42.600;23.476;2024-03-25T10:09:21;7.47;60.67
67942;SHT31;54731;42.600;23.476;2024-03-25T10:11:48;7.38;58.58
67942;SHT31;54731;42.600;23.476;2024-03-25T10:14:17;7.38;58.09
67942;SHT31;54731;42.600;23.476;2024-03-25T10:16:43;7.33;58.55
67942;SHT31;54731;42.600;23.476;2024-03-25T10:19:09;7.26;58.67
67942;SHT31;54731;42.600;23.476;2024-03-25T10:21:34;7.17;59.68
67942;SHT31;54731;42.600;23.476;2024-03-25T10:24:00;7.24;59.48
67942;SHT31;54731;42.600;23.476;2024-03-25T10:26:30;7.37;58.39
67942;SHT31;54731;42.600;23.476;2024-03-25T10:29:00;7.37;58.66
67942;SHT31;54731;42.600;23.476;2024-03-25T10:31:25;7.38;59.39
67942;SHT31;54731;42.600;23.476;2024-03-25T10:33:50;7.24;59.49
67942;SHT31;54731;42.600;23.476;2024-03-25T10:36:16;7.16;59.09
67942;SHT31;54731;42.600;23.476;2024-03-25T10:38:42;7.28;59.33
67942;SHT31;54731;42.600;23.476;2024-03-25T10:41:08;7.10;59.37
67942;SHT31;54731;42.600;23.476;2024-03-25T10:43:35;7.27;59.75
67942;SHT31;54731;42.600;23.476;2024-03-25T10:46:01;7.37;58.46
67942;SHT31;54731;42.600;23.476;2024-03-25T10:48:37;7.56;57.30
67942;SHT31;54731;42.600;23.476;2024-03-25T10:51:04;7.44;56.06
67942;SHT31;54731;42.600;23.476;2024-03-25T10:53:32;7.51;55.07
67942;SHT31;54731;42.600;23.476;2024-03-25T10:55:57;7.81;55.98
67942;SHT31;54731;42.600;23.476;2024-03-25T10:58:23;8.08;54.74
67942;SHT31;54731;42.600;23.476;2024-03-25T11:00:49;8.19;52.96
67942;SHT31;54731;42.600;23.476;2024-03-25T11:03:16;8.13;53.62
67942;SHT31;54731;42.600;23.476;2024-03-25T11:05:41;8.21;52.00
67942;SHT31;54731;42.600;23.476;2024-03-25T11:08:16;8.31;53.09
67942;SHT31;54731;42.600;23.476;2024-03-25T11:10:46;8.32;52.28
67942;SHT31;54731;42.600;23.476;2024-03-25T11:13:18;8.24;50.61
67942;SHT31;54731;42.600;23.476;2024-03-25T11:15:45;8.08;50.93
67942;SHT31;54731;42.600;23.476;2024-03-25T11:18:12;8.01;51.87
67942;SHT31;54731;42.600;23.476;2024-03-25T11:20:37;7.94;51.92
67942;SHT31;54731;42.600;23.476;2024-03-25T11:23:11;7.84;52.24
67942;SHT31;54731;42.600;23.476;2024-03-25T11:25:37;7.84;52.36
67942;SHT31;54731;42.600;23.476;2024-03-25T11:28:03;7.87;50.77
67942;SHT31;54731;42.600;23.476;2024-03-25T11:30:29;7.80;49.81
67942;SHT31;54731;42.600;23.476;2024-03-25T11:32:54;7.82;50.66
67942;SHT31;54731;42.600;23.476;2024-03-25T11:35:20;7.85;52.14
67942;SHT31;54731;42.600;23.476;2024-03-25T11:37:46;8.09;53.19
67942;SHT31;54731;42.600;23.476;2024-03-25T11:40:13;8.09;53.23
67942;SHT31;54731;42.600;23.476;2024-03-25T11:42:40;8.08;51.85
67942;SHT31;54731;42.600;23.476;2024-03-25T11:45:19;8.67;51.03
67942;SHT31;54731;42.600;23.476;2024-03-25T11:47:46;8.90;50.26
67942;SHT31;54731;42.600;23.476;2024-03-25T11:50:13;8.79;50.23
67942;SHT31;54731;42.600;23.476;2024-03-25T11:52:39;9.00;50.79
67942;SHT31;54731;42.600;23.476;2024-03-25T11:55:05;8.80;50.91
67942;SHT31;54731;42.600;23.476;2024-03-25T11:57:30;8.56;52.25
67942;SHT31;54731;42.600;23.476;2024-03-25T12:00:01;8.77;50.00
67942;SHT31;54731;42.600;23.476;2024-03-25T12:02:27;8.72;50.83
67942;SHT31;54731;42.600;23.476;2024-03-25T12:04:52;8.52;51.84
67942;SHT31;54731;42.600;23.476;2024-03-25T12:07:18;8.52;53.06
67942;SHT31;54731;42.600;23.476;2024-03-25T12:09:43;8.79;55.53
67942;SHT31;54731;42.600;23.476;2024-03-25T12:12:09;9.24;53.09
67942;SHT31;54731;42.600;23.476;2024-03-25T12:14:34;9.13;52.95
67942;SHT31;54731;42.600;23.476;2024-03-25T12:17:00;9.27;53.53
67942;SHT31;54731;42.600;23.476;2024-03-25T12:19:26;9.18;54.45
67942;SHT31;54731;42.600;23.476;2024-03-25T12:22:01;9.17;54.26
67942;SHT31;54731;42.600;23.476;2024-03-25T12:24:27;9.17;52.67
67942;SHT31;54731;42.600;23.476;2024-03-25T12:26:52;9.13;51.74
67942;SHT31;54731;42.600;23.476;2024-03-25T12:29:17;8.60;52.74
67942;SHT31;54731;42.600;23.476;2024-03-25T12:31:43;8.62;53.63
67942;SHT31;54731;42.600;23.476;2024-03-25T12:34:14;8.74;52.54
67942;SHT31;54731;42.600;23.476;2024-03-25T12:36:39;8.60;52.56
67942;SHT31;54731;42.600;23.476;2024-03-25T12:39:04;8.41;53.04
67942;SHT31;54731;42.600;23.476;2024-03-25T12:41:30;8.57;52.70
67942;SHT31;54731;42.600;23.476;2024-03-25T12:43:55;8.73;52.14
67942;SHT31;54731;42.600;23.476;2024-03-25T12:46:20;8.79;53.39
67942;SHT31;54731;42.600;23.476;2024-03-25T12:48:46;8.97;53.30
67942;SHT31;54731;42.600;23.476;2024-03-25T12:51:15;9.26;51.96
67942;SHT31;54731;42.600;23.476;2024-03-25T12:53:40;9.41;50.89
67942;SHT31;54731;42.600;23.476;2024-03-25T12:56:06;9.62;50.00
67942;SHT31;54731;42.600;23.476;2024-03-25T12:58:31;9.30;49.21
67942;SHT31;54731;42.600;23.476;2024-03-25T13:00:57;9.23;49.46
67942;SHT31;54731;42.600;23.476;2024-03-25T13:03:22;9.44;49.43
67942;SHT31;54731;42.600;23.476;2024-03-25T13:05:48;9.34;49.58
67942;SHT31;54731;42.600;23.476;2024-03-25T13:08:13;9.30;49.68
67942;SHT31;54731;42.600;23.476;2024-03-25T13:10:38;8.80;49.58
67942;SHT31;54731;42.600;23.476;2024-03-25T13:13:04;8.86;49.29
67942;SHT31;54731;42.600;23.476;2024-03-25T13:15:29;8.87;50.16
67942;SHT31;54731;42.600;23.476;2024-03-25T13:17:54;8.67;50.83
67942;SHT31;54731;42.600;23.476;2024-03-25T13:20:20;8.83;48.51
67942;SHT31;54731;42.600;23.476;2024-03-25T13:22:45;9.23;48.93
67942;SHT31;54731;42.600;23.476;2024-03-25T13:25:11;9.59;45.20
67942;SHT31;54731;42.600;23.476;2024-03-25T13:27:36;9.77;45.26
67942;SHT31;54731;42.600;23.476;2024-03-25T13:30:01;9.85;42.72
67942;SHT31;54731;42.600;23.476;2024-03-25T13:32:30;9.92;43.13
67942;SHT31;54731;42.600;23.476;2024-03-25T13:34:55;10.06;42.19
67942;SHT31;54731;42.600;23.476;2024-03-25T13:37:20;10.30;43.58
67942;SHT31;54731;42.600;23.476;2024-03-25T13:39:45;10.33;44.18
67942;SHT31;54731;42.600;23.476;2024-03-25T13:42:11;10.61;43.85
67942;SHT31;54731;42.600;23.476;2024-03-25T13:44:36;10.66;43.93
67942;SHT31;54731;42.600;23.476;2024-03-25T13:47:02;11.00;42.70
67942;SHT31;54731;42.600;23.476;2024-03-25T13:49:27;11.18;43.49
67942;SHT31;54731;42.600;23.476;2024-03-25T13:51:58;11.10;43.36
67942;SHT31;54731;42.600;23.476;2024-03-25T13:54:26;11.27;42.78
67942;SHT31;54731;42.600;23.476;2024-03-25T13:56:52;11.08;43.32
67942;SHT31;54731;42.600;23.476;2024-03-25T13:59:17;11.49;41.87
67942;SHT31;54731;42.600;23.476;2024-03-25T14:01:43;11.49;41.81
67942;SHT31;54731;42.600;23.476;2024-03-25T14:04:08;11.78;41.04
67942;SHT31;54731;42.600;23.476;2024-03-25T14:06:33;11.93;41.66
67942;SHT31;54731;42.600;23.476;2024-03-25T14:08:59;11.89;40.77
67942;SHT31;54731;42.600;23.476;2024-03-25T14:11:25;11.45;42.07
67942;SHT31;54731;42.600;23.476;2024-03-25T14:13:50;11.22;42.63
67942;SHT31;54731;42.600;23.476;2024-03-25T14:16:15;11.34;41.82
67942;SHT31;54731;42.600;23.476;2024-03-25T14:18:41;11.25;41.40
67942;SHT31;54731;42.600;23.476;2024-03-25T14:21:07;10.52;45.22
67942;SHT31;54731;42.600;23.476;2024-03-25T14:23:32;10.06;47.70
67942;SHT31;54731;42.600;23.476;2024-03-25T14:25:57;9.91;49.11
67942;SHT31;54731;42.600;23.476;2024-03-25T14:28:23;9.89;48.85
67942;SHT31;54731;42.600;23.476;2024-03-25T14:30:48;9.30;50.50
67942;SHT31;54731;42.600;23.476;2024-03-25T14:33:13;9.17;51.15
67942;SHT31;54731;42.600;23.476;2024-03-25T14:35:39;8.94;50.16
67942;SHT31;54731;42.600;23.476;2024-03-25T14:38:04;8.91;52.20
67942;SHT31;54731;42.600;23.476;2024-03-25T14:40:29;8.87;50.92
67942;SHT31;54731;42.600;23.476;2024-03-25T14:42:54;8.55;51.63
67942;SHT31;54731;42.600;23.476;2024-03-25T14:45:20;8.45;51.34
67942;SHT31;54731;42.600;23.476;2024-03-25T14:47:45;8.55;50.74
67942;SHT31;54731;42.600;23.476;2024-03-25T14:50:10;8.41;50.45
67942;SHT31;54731;42.600;23.476;2024-03-25T14:52:36;8.70;49.89
67942;SHT31;54731;42.600;23.476;2024-03-25T14:55:01;8.72;49.48
67942;SHT31;54731;42.600;23.476;2024-03-25T14:57:29;8.79;50.16
67942;SHT31;54731;42.600;23.476;2024-03-25T14:59:54;9.00;48.71
67942;SHT31;54731;42.600;23.476;2024-03-25T15:02:19;9.01;48.39
67942;SHT31;54731;42.600;23.476;2024-03-25T15:04:45;8.86;47.79
67942;SHT31;54731;42.600;23.476;2024-03-25T15:07:13;9.00;48.85
67942;SHT31;54731;42.600;23.476;2024-03-25T15:09:39;8.97;48.91
67942;SHT31;54731;42.600;23.476;2024-03-25T15:12:04;9.03;49.20
67942;SHT31;54731;42.600;23.476;2024-03-25T15:14:30;9.07;48.80
67942;SHT31;54731;42.600;23.476;2024-03-25T15:16:55;9.23;49.19
67942;SHT31;54731;42.600;23.476;2024-03-25T15:19:20;9.35;49.23
67942;SHT31;54731;42.600;23.476;2024-03-25T15:21:46;9.41;49.82